Terminal Aerodrome Forecast
Issued by NWS

Home | Current Version | Previous Version | Text Only | Print | Product List | Glossary On
Versions: 1 2 3 4 5 6 7 8 9 10 11 12 13 14
000
FTUS41 KPHI 210500
TAFMIV
TAF
KMIV 210522Z 2106/2206 VRB03KT P6SM BKN100
     FM211600 28005KT P6SM SCT050 BKN100
     FM212200 32005KT P6SM -SHRA BKN050
     FM220300 VRB03KT 6SM -SHRA OVC040=

USA.gov is the U.S. government's official web portal to all federal, state and local government web resources and services.